CheckWX is a tool to help pilots better visualize weather data.  It is not intended as a substitute for an official pre-flight weather briefing.

15:36:41 UTC

KGVL METAR
Lee Gilmer Memorial Airport
Gainesville, Georgia, USA
Current

44 mins ago

KGVL 241453Z AUTO 23011KT 10SM FEW017 27/22 A3003 RMK AO2 SLP152 T02670217 50000
Observed
Jun-24 @ 14:53 UTC
Wind
  • 230° at 11 KTS
Visibility
10 SM
Flight Rules
VFR
Cloud Levels
  • Few at 1,700' AGL
Temperature
27°C / 81°F
Dewpoint
22°C / 72°F
Heat Index
29°C / 85°F
Humidity
74%
Altimeter
30.03" Hg
Pressure
1016.92 hPa
Previous

2 hours ago

KGVL 241353Z AUTO 24009KT 10SM SCT013 26/22 A3004 RMK AO2 SLP155 T02560222
Observed
Jun-24 @ 13:53 UTC
Wind
  • 240° at 9 KTS
Visibility
10 SM
Flight Rules
VFR
Cloud Levels
  • Scattered at 1,300' AGL
Temperature
26°C / 79°F
Dewpoint
22°C / 72°F
Humidity
79%
Altimeter
30.04" Hg
Pressure
1017.32 hPa
Previous

2 hours ago

KGVL 241333Z AUTO 26008KT 10SM BKN011 25/23 A3004 RMK AO2 T02500228
Observed
Jun-24 @ 13:33 UTC
Wind
  • 260° at 8 KTS
Visibility
10 SM
Flight Rules
MVFR
Cloud Levels
  • Broken at 1,100' AGL
Temperature
25°C / 77°F
Dewpoint
23°C / 73°F
Humidity
89%
Altimeter
30.04" Hg
Pressure
1017.32 hPa